createdAt,value
2018-09-08T00:00:48.944Z,4.00
2018-09-08T00:01:48.965Z,8.00
2018-09-08T00:02:48.984Z,4.00
2018-09-08T00:03:49.009Z,8.00
2018-09-08T00:04:49.023Z,4.00
2018-09-08T00:05:49.045Z,4.00
2018-09-08T00:06:49.064Z,4.00
2018-09-08T00:07:49.084Z,8.00
2018-09-08T00:08:49.105Z,8.00
2018-09-08T00:09:49.125Z,8.00
2018-09-08T00:10:49.146Z,8.00
2018-09-08T00:11:49.164Z,8.00
2018-09-08T00:12:49.182Z,8.00
2018-09-08T00:13:49.202Z,8.00
2018-09-08T00:14:49.225Z,8.00
2018-09-08T00:15:49.245Z,8.00
2018-09-08T00:16:49.263Z,8.00
2018-09-08T00:17:49.284Z,8.00
2018-09-08T00:18:49.304Z,4.00
2018-09-08T00:19:49.325Z,8.00
2018-09-08T00:20:49.341Z,8.00
2018-09-08T00:21:49.361Z,8.00
2018-09-08T00:22:49.383Z,8.00
2018-09-08T00:23:49.404Z,8.00
2018-09-08T00:24:49.424Z,8.00
2018-09-08T00:25:49.441Z,8.00
2018-09-08T00:26:49.461Z,8.00
2018-09-08T00:27:49.481Z,4.00
2018-09-08T00:28:49.501Z,8.00
2018-09-08T00:29:49.521Z,8.00
2018-09-08T00:30:49.544Z,8.00
2018-09-08T00:31:49.563Z,8.00
2018-09-08T00:32:49.583Z,8.00
2018-09-08T00:33:49.602Z,8.00
2018-09-08T00:34:49.622Z,8.00
2018-09-08T00:35:49.641Z,8.00
2018-09-08T00:36:49.667Z,8.00
2018-09-08T00:37:49.680Z,8.00
2018-09-08T00:38:49.703Z,8.00
2018-09-08T00:39:49.721Z,8.00
2018-09-08T00:40:49.740Z,8.00
2018-09-08T00:41:49.760Z,8.00
2018-09-08T00:42:49.786Z,8.00
2018-09-08T00:43:49.809Z,8.00
2018-09-08T00:44:49.823Z,8.00
2018-09-08T00:45:49.874Z,8.00
2018-09-08T00:46:49.862Z,8.00
2018-09-08T00:47:49.883Z,8.00
2018-09-08T00:48:49.901Z,8.00
2018-09-08T00:49:49.922Z,8.00
2018-09-08T00:50:49.946Z,8.00
2018-09-08T00:51:49.968Z,8.00
2018-09-08T00:52:49.980Z,8.00
2018-09-08T00:53:50.000Z,8.00
2018-09-08T00:54:50.020Z,8.00
2018-09-08T00:55:50.042Z,8.00
2018-09-08T00:56:50.240Z,4.00
2018-09-08T00:57:50.081Z,8.00
2018-09-08T00:58:50.104Z,4.00
2018-09-08T00:59:50.121Z,8.00
2018-09-08T01:00:50.145Z,8.00
2018-09-08T01:01:50.162Z,8.00
2018-09-08T01:02:50.181Z,8.00
2018-09-08T01:03:50.268Z,8.00
2018-09-08T01:04:50.219Z,8.00
2018-09-08T01:05:50.241Z,8.00
2018-09-08T01:06:50.259Z,8.00
2018-09-08T01:07:50.282Z,8.00
2018-09-08T01:08:50.302Z,8.00
2018-09-08T01:09:50.319Z,4.00
2018-09-08T01:10:50.340Z,4.00
2018-09-08T01:11:50.367Z,4.00
2018-09-08T01:12:50.381Z,4.00
2018-09-08T01:13:50.405Z,4.00
2018-09-08T01:14:50.422Z,4.00
2018-09-08T01:15:50.441Z,4.00
2018-09-08T01:16:50.459Z,4.00
2018-09-08T01:17:50.479Z,4.00
2018-09-08T01:18:50.500Z,4.00
2018-09-08T01:19:50.522Z,4.00
2018-09-08T01:20:50.541Z,4.00
2018-09-08T01:21:50.560Z,4.00
2018-09-08T01:22:50.582Z,4.00
2018-09-08T01:23:50.628Z,4.00
2018-09-08T01:24:50.621Z,4.00
2018-09-08T01:25:50.641Z,8.00
2018-09-08T01:26:50.658Z,4.00
2018-09-08T01:27:50.681Z,4.00
2018-09-08T01:28:50.721Z,8.00
2018-09-08T01:29:50.717Z,4.00
2018-09-08T01:30:50.741Z,4.00
2018-09-08T01:31:50.761Z,4.00
2018-09-08T01:32:50.778Z,4.00
2018-09-08T01:33:50.800Z,4.00
2018-09-08T01:34:50.820Z,4.00
2018-09-08T01:35:50.865Z,4.00
2018-09-08T01:36:50.859Z,4.00
2018-09-08T01:37:50.878Z,4.00
2018-09-08T01:38:50.896Z,4.00
2018-09-08T01:39:50.918Z,4.00
2018-09-08T01:40:50.937Z,4.00
2018-09-08T01:41:50.957Z,8.00
2018-09-08T01:42:50.975Z,4.00
2018-09-08T01:43:50.998Z,4.00
2018-09-08T01:44:51.014Z,4.00
2018-09-08T01:45:51.039Z,4.00
2018-09-08T01:46:51.054Z,4.00
2018-09-08T01:47:51.074Z,4.00
2018-09-08T01:48:51.093Z,4.00
2018-09-08T01:49:51.112Z,8.00
2018-09-08T01:50:51.140Z,4.00
2018-09-08T01:51:51.154Z,4.00
2018-09-08T01:52:51.174Z,4.00
2018-09-08T01:53:51.195Z,4.00
2018-09-08T01:54:51.217Z,4.00
2018-09-08T01:55:51.232Z,8.00
2018-09-08T01:56:51.252Z,4.00
2018-09-08T01:57:51.273Z,4.00
2018-09-08T01:58:51.318Z,8.00
2018-09-08T01:59:51.316Z,8.00
2018-09-08T02:00:51.330Z,8.00
2018-09-08T02:01:51.350Z,4.00
2018-09-08T02:02:51.371Z,4.00
2018-09-08T02:03:51.390Z,4.00
2018-09-08T02:04:51.414Z,4.00
2018-09-08T02:05:51.427Z,4.00
2018-09-08T02:06:51.447Z,4.00
2018-09-08T02:07:51.467Z,4.00
2018-09-08T02:08:51.486Z,4.00
2018-09-08T02:09:51.509Z,4.00
2018-09-08T02:10:51.528Z,4.00
2018-09-08T02:11:51.549Z,4.00
2018-09-08T02:12:51.566Z,4.00
2018-09-08T02:13:51.588Z,4.00
2018-09-08T02:14:51.605Z,4.00
2018-09-08T02:15:51.625Z,4.00
2018-09-08T02:16:51.642Z,4.00
2018-09-08T02:17:51.664Z,4.00
2018-09-08T02:18:51.682Z,4.00
2018-09-08T02:19:51.704Z,4.00
2018-09-08T02:20:51.720Z,4.00
2018-09-08T02:21:51.741Z,4.00
2018-09-08T02:22:51.763Z,4.00
2018-09-08T02:23:51.782Z,4.00
2018-09-08T02:24:51.800Z,4.00
2018-09-08T02:25:51.819Z,4.00
2018-09-08T02:26:51.838Z,4.00
2018-09-08T02:27:51.859Z,4.00
2018-09-08T02:28:51.880Z,4.00
2018-09-08T02:29:51.901Z,4.00
2018-09-08T02:30:51.916Z,4.00
2018-09-08T02:31:51.941Z,4.00
2018-09-08T02:32:51.954Z,4.00
2018-09-08T02:33:51.984Z,4.00
2018-09-08T02:34:52.007Z,4.00
2018-09-08T02:35:52.016Z,4.00
2018-09-08T02:36:52.033Z,4.00
2018-09-08T02:37:52.053Z,4.00
2018-09-08T02:38:52.074Z,4.00
2018-09-08T02:39:52.094Z,4.00
2018-09-08T02:40:52.112Z,4.00
2018-09-08T02:41:52.133Z,4.00
2018-09-08T02:42:52.151Z,4.00
2018-09-08T02:43:52.174Z,4.00
2018-09-08T02:44:52.189Z,4.00
2018-09-08T02:45:52.207Z,4.00
2018-09-08T02:46:52.557Z,4.00
2018-09-08T02:47:52.248Z,4.00
2018-09-08T02:48:52.267Z,4.00
2018-09-08T02:49:52.285Z,4.00
2018-09-08T02:50:52.307Z,4.00
2018-09-08T02:51:52.324Z,4.00
2018-09-08T02:52:52.349Z,4.00
2018-09-08T02:53:52.370Z,4.00
2018-09-08T02:54:52.382Z,4.00
2018-09-08T02:55:52.401Z,4.00
2018-09-08T02:56:52.422Z,4.00
2018-09-08T02:57:52.442Z,4.00
2018-09-08T02:58:52.460Z,4.00
2018-09-08T02:59:52.478Z,4.00
2018-09-08T03:00:52.499Z,4.00
2018-09-08T03:01:52.519Z,4.00
2018-09-08T03:02:52.537Z,4.00
2018-09-08T03:03:52.559Z,4.00
2018-09-08T03:04:52.575Z,4.00
2018-09-08T03:05:52.595Z,4.00
2018-09-08T03:06:52.615Z,4.00
2018-09-08T03:07:52.640Z,4.00
2018-09-08T03:08:52.679Z,4.00
2018-09-08T03:09:52.674Z,4.00
2018-09-08T03:10:52.691Z,4.00
2018-09-08T03:11:52.714Z,4.00
2018-09-08T03:12:52.736Z,4.00
2018-09-08T03:13:52.751Z,4.00
2018-09-08T03:14:52.770Z,4.00
2018-09-08T03:15:52.791Z,4.00
2018-09-08T03:16:52.810Z,4.00
2018-09-08T03:17:52.827Z,4.00
2018-09-08T03:18:52.849Z,4.00
2018-09-08T03:19:52.867Z,4.00
2018-09-08T03:20:52.885Z,4.00
2018-09-08T03:21:52.903Z,4.00
2018-09-08T03:22:52.927Z,4.00
2018-09-08T03:23:52.964Z,4.00
2018-09-08T03:24:52.961Z,4.00
2018-09-08T03:25:52.981Z,4.00
2018-09-08T03:26:53.006Z,4.00
2018-09-08T03:27:53.019Z,4.00
2018-09-08T03:28:53.038Z,4.00
2018-09-08T03:29:53.058Z,4.00
2018-09-08T03:30:53.080Z,4.00
2018-09-08T03:31:53.097Z,4.00
2018-09-08T03:32:53.117Z,4.00
2018-09-08T03:33:53.134Z,4.00
2018-09-08T03:34:53.154Z,4.00
2018-09-08T03:35:53.176Z,4.00
2018-09-08T03:36:53.191Z,4.00
2018-09-08T03:37:53.213Z,4.00
2018-09-08T03:38:53.234Z,4.00
2018-09-08T03:39:53.249Z,4.00
2018-09-08T03:40:53.268Z,4.00
2018-09-08T03:41:53.288Z,4.00
2018-09-08T03:42:53.307Z,4.00
2018-09-08T03:43:53.330Z,4.00
2018-09-08T03:44:53.345Z,4.00
2018-09-08T03:45:53.368Z,4.00
2018-09-08T03:46:53.383Z,4.00
2018-09-08T03:47:53.403Z,4.00
2018-09-08T03:48:53.423Z,4.00
2018-09-08T03:49:53.442Z,4.00
2018-09-08T03:50:53.463Z,4.00
2018-09-08T03:51:53.482Z,4.00
2018-09-08T03:52:53.499Z,4.00
2018-09-08T03:53:53.519Z,4.00
2018-09-08T03:54:53.541Z,4.00
2018-09-08T03:55:53.557Z,4.00
2018-09-08T03:56:53.577Z,4.00
2018-09-08T03:57:53.597Z,4.00
2018-09-08T03:58:53.625Z,4.00
2018-09-08T03:59:53.634Z,4.00
2018-09-08T04:00:53.656Z,4.00
2018-09-08T04:01:53.674Z,4.00
2018-09-08T04:02:53.691Z,4.00
2018-09-08T04:03:53.714Z,4.00
2018-09-08T04:04:53.731Z,4.00
2018-09-08T04:05:53.751Z,4.00
2018-09-08T04:06:53.771Z,4.00
2018-09-08T04:07:53.789Z,4.00
2018-09-08T04:08:53.809Z,4.00
2018-09-08T04:09:53.826Z,4.00
2018-09-08T04:10:53.852Z,4.00
2018-09-08T04:11:53.864Z,4.00
2018-09-08T04:12:53.885Z,4.00
2018-09-08T04:13:53.903Z,4.00
2018-09-08T04:14:53.925Z,4.00
2018-09-08T04:15:53.941Z,4.00
2018-09-08T04:16:53.961Z,4.00
2018-09-08T04:17:53.981Z,8.00
2018-09-08T04:18:54.002Z,8.00
2018-09-08T04:19:54.021Z,8.00
2018-09-08T04:20:54.038Z,4.00
2018-09-08T04:21:54.057Z,4.00
2018-09-08T04:22:54.075Z,4.00
2018-09-08T04:23:54.100Z,8.00
2018-09-08T04:24:54.113Z,8.00
2018-09-08T04:25:54.135Z,8.00
2018-09-08T04:26:54.153Z,8.00
2018-09-08T04:27:54.170Z,8.00
2018-09-08T04:28:54.188Z,8.00
2018-09-08T04:29:54.209Z,12.00
2018-09-08T04:30:54.230Z,12.00
2018-09-08T04:31:54.247Z,12.00
2018-09-08T04:32:54.267Z,16.00
2018-09-08T04:33:54.288Z,12.00
2018-09-08T04:34:54.304Z,12.00
2018-09-08T04:35:54.325Z,16.00
2018-09-08T04:36:54.343Z,20.00
2018-09-08T04:37:54.363Z,24.00
2018-09-08T04:38:54.381Z,28.00
2018-09-08T04:39:54.403Z,28.00
2018-09-08T04:40:54.493Z,32.00
2018-09-08T04:41:54.437Z,40.00
2018-09-08T04:42:54.456Z,40.00
2018-09-08T04:43:54.479Z,48.00
2018-09-08T04:44:54.496Z,56.00
2018-09-08T04:45:54.515Z,64.00
2018-09-08T04:46:54.538Z,68.00
2018-09-08T04:47:54.554Z,76.00
2018-09-08T04:48:54.570Z,84.00
2018-09-08T04:49:54.591Z,92.00
2018-09-08T04:50:54.610Z,100.00
2018-09-08T04:51:54.631Z,112.00
2018-09-08T04:52:54.645Z,120.00
2018-09-08T04:53:54.665Z,132.00
2018-09-08T04:54:54.685Z,140.00
2018-09-08T04:55:54.707Z,152.00
2018-09-08T04:56:54.721Z,164.00
2018-09-08T04:57:54.744Z,180.00
2018-09-08T04:58:54.764Z,196.00
2018-09-08T04:59:54.782Z,204.00
2018-09-08T05:00:54.805Z,220.00
2018-09-08T05:01:54.818Z,232.00
2018-09-08T05:02:54.838Z,244.00
2018-09-08T05:03:54.855Z,260.00
2018-09-08T05:04:54.879Z,272.00
2018-09-08T05:05:54.895Z,288.00
2018-09-08T05:06:54.914Z,304.00
2018-09-08T05:07:54.932Z,320.00
2018-09-08T05:08:54.960Z,336.00
2018-09-08T05:09:54.972Z,352.00
2018-09-08T05:10:54.989Z,368.00
2018-09-08T05:11:55.008Z,376.00
2018-09-08T05:12:55.028Z,388.00
2018-09-08T05:13:55.049Z,404.00
2018-09-08T05:14:55.067Z,420.00
2018-09-08T05:15:55.088Z,436.00
2018-09-08T05:16:55.102Z,448.00
2018-09-08T05:17:55.124Z,460.00
2018-09-08T05:18:55.146Z,480.00
2018-09-08T05:19:55.160Z,496.00
2018-09-08T05:20:55.180Z,504.00
2018-09-08T05:21:55.199Z,508.00
2018-09-08T05:22:55.220Z,520.00
2018-09-08T05:23:55.238Z,552.00
2018-09-08T05:24:55.256Z,588.00
2018-09-08T05:25:55.281Z,624.00
2018-09-08T05:26:55.293Z,648.00
2018-09-08T05:27:55.316Z,680.00
2018-09-08T05:28:55.336Z,700.00
2018-09-08T05:29:55.353Z,712.00
2018-09-08T05:30:55.368Z,724.00
2018-09-08T05:31:55.391Z,736.00
2018-09-08T05:32:55.409Z,756.00
2018-09-08T05:33:55.427Z,780.00
2018-09-08T05:34:55.467Z,812.00
2018-09-08T05:35:55.464Z,840.00
2018-09-08T05:36:55.483Z,856.00
2018-09-08T05:37:55.505Z,860.00
2018-09-08T05:38:55.521Z,860.00
2018-09-08T05:39:55.543Z,888.00
2018-09-08T05:40:55.562Z,916.00
2018-09-08T05:41:55.580Z,976.00
2018-09-08T05:42:55.607Z,1004.00
2018-09-08T05:43:55.616Z,1012.00
2018-09-08T05:44:55.640Z,1028.00
2018-09-08T05:45:55.655Z,1040.00
2018-09-08T05:46:55.677Z,1044.00
2018-09-08T05:47:55.696Z,1052.00
2018-09-08T05:48:56.134Z,1064.00
2018-09-08T05:49:55.731Z,1072.00
2018-09-08T05:50:55.753Z,1072.00
2018-09-08T05:51:55.772Z,1088.00
2018-09-08T05:52:55.788Z,1096.00
2018-09-08T05:53:55.810Z,1100.00
2018-09-08T05:54:55.827Z,1100.00
2018-09-08T05:55:55.846Z,1116.00
2018-09-08T05:56:55.866Z,1132.00
2018-09-08T05:57:55.886Z,1048.00
2018-09-08T05:58:55.902Z,1076.00
2018-09-08T05:59:55.925Z,1152.00
2018-09-08T06:00:55.940Z,1176.00
2018-09-08T06:01:55.960Z,1184.00
2018-09-08T06:02:55.980Z,1208.00
2018-09-08T06:03:56.003Z,1252.00
2018-09-08T06:04:56.019Z,1292.00
2018-09-08T06:05:56.039Z,1328.00
2018-09-08T06:06:56.083Z,1348.00
2018-09-08T06:07:56.081Z,1344.00
2018-09-08T06:08:56.097Z,1380.00
2018-09-08T06:09:56.143Z,1400.00
2018-09-08T06:10:56.132Z,1404.00
2018-09-08T06:11:56.152Z,1408.00
2018-09-08T06:12:56.173Z,1424.00
2018-09-08T06:13:56.192Z,1432.00
2018-09-08T06:14:56.212Z,1452.00
2018-09-08T06:15:56.230Z,1472.00
2018-09-08T06:16:56.247Z,1492.00
2018-09-08T06:17:56.268Z,1516.00
2018-09-08T06:18:56.288Z,1532.00
2018-09-08T06:19:56.307Z,1556.00
2018-09-08T06:20:56.324Z,1576.00
2018-09-08T06:21:56.345Z,1588.00
2018-09-08T06:22:56.369Z,1612.00
2018-09-08T06:23:56.384Z,1624.00
2018-09-08T06:24:56.400Z,1640.00
2018-09-08T06:25:56.423Z,1648.00
2018-09-08T06:26:56.442Z,1660.00
2018-09-08T06:27:56.462Z,1676.00
2018-09-08T06:28:56.477Z,1684.00
2018-09-08T06:29:56.498Z,1672.00
2018-09-08T06:30:56.517Z,1712.00
2018-09-08T06:31:56.591Z,1736.00
2018-09-08T06:32:56.557Z,1752.00
2018-09-08T06:33:56.638Z,1764.00
2018-09-08T06:34:56.597Z,1780.00
2018-09-08T06:35:56.616Z,1800.00
2018-09-08T06:36:56.660Z,1824.00
2018-09-08T06:37:56.653Z,1840.00
2018-09-08T06:38:56.674Z,1848.00
2018-09-08T06:39:56.698Z,1932.00
2018-09-08T06:40:56.713Z,1884.00
2018-09-08T06:41:56.733Z,1896.00
2018-09-08T06:42:56.751Z,1908.00
2018-09-08T06:43:56.769Z,1924.00
2018-09-08T06:44:56.863Z,1940.00
2018-09-08T06:45:56.814Z,1956.00
2018-09-08T06:46:56.832Z,1976.00
2018-09-08T06:47:56.848Z,1996.00
2018-09-08T06:48:56.869Z,2016.00
2018-09-08T06:49:56.887Z,2040.00
2018-09-08T06:50:56.904Z,2052.00
2018-09-08T06:51:56.927Z,2064.00
2018-09-08T06:52:56.945Z,2072.00
2018-09-08T06:53:56.963Z,2092.00
2018-09-08T06:54:56.990Z,2116.00
2018-09-08T06:55:57.005Z,2124.00
2018-09-08T06:56:57.024Z,2148.00
2018-09-08T06:57:57.088Z,2188.00
2018-09-08T06:58:57.065Z,2216.00
2018-09-08T06:59:57.081Z,2256.00
2018-09-08T07:00:57.101Z,2280.00
2018-09-08T07:01:57.121Z,2300.00
2018-09-08T07:02:57.143Z,2296.00
2018-09-08T07:03:57.161Z,2312.00
2018-09-08T07:04:57.182Z,2336.00
2018-09-08T07:05:57.202Z,2372.00
2018-09-08T07:06:57.220Z,2408.00
2018-09-08T07:07:57.242Z,2472.00
2018-09-08T07:08:57.261Z,2536.00
2018-09-08T07:09:57.281Z,2620.00
2018-09-08T07:10:57.299Z,2676.00
2018-09-08T07:11:57.321Z,2784.00
2018-09-08T07:12:57.340Z,2888.00
2018-09-08T07:13:57.358Z,2976.00
2018-09-08T07:14:57.427Z,3168.00
2018-09-08T07:15:57.400Z,3360.00
2018-09-08T07:16:57.420Z,3556.00
2018-09-08T07:17:57.440Z,3776.00
2018-09-08T07:18:57.461Z,3980.00
2018-09-08T07:19:57.479Z,4184.00
2018-09-08T07:20:57.500Z,4372.00
2018-09-08T07:21:57.528Z,4512.00
2018-09-08T07:22:57.538Z,4632.00
2018-09-08T07:23:57.560Z,4420.00
2018-09-08T07:24:57.618Z,4596.00
2018-09-08T07:25:57.598Z,4360.00
2018-09-08T07:26:57.618Z,4364.00
2018-09-08T07:27:57.640Z,4316.00
2018-09-08T07:28:57.661Z,4188.00
2018-09-08T07:29:57.681Z,4292.00
2018-09-08T07:30:57.709Z,4356.00
2018-09-08T07:31:57.720Z,4036.00
2018-09-08T07:32:57.744Z,3860.00
2018-09-08T07:33:57.763Z,3688.00
2018-09-08T07:34:57.788Z,3644.00
2018-09-08T07:35:57.805Z,3576.00
2018-09-08T07:36:57.825Z,3712.00
2018-09-08T07:37:57.845Z,3436.00
2018-09-08T07:38:57.867Z,3564.00
2018-09-08T07:39:57.886Z,3560.00
2018-09-08T07:40:57.906Z,3332.00
2018-09-08T07:41:57.927Z,3144.00
2018-09-08T07:42:57.949Z,3028.00
2018-09-08T07:43:57.970Z,2860.00
2018-09-08T07:44:57.990Z,2888.00
2018-09-08T07:45:58.050Z,2700.00
2018-09-08T07:46:58.031Z,2896.00
2018-09-08T07:47:58.052Z,2900.00
2018-09-08T07:48:58.074Z,2844.00
2018-09-08T07:49:58.095Z,2872.00
2018-09-08T07:50:58.318Z,2828.00
2018-09-08T07:51:58.139Z,2780.00
2018-09-08T07:52:58.159Z,2628.00
2018-09-08T07:53:58.232Z,2852.00
2018-09-08T07:54:58.197Z,2500.00
2018-09-08T07:55:58.221Z,2444.00
2018-09-08T07:56:58.242Z,2924.00
2018-09-08T07:57:58.263Z,3048.00
2018-09-08T07:58:58.282Z,2716.00
2018-09-08T07:59:58.335Z,2612.00
2018-09-08T08:00:58.323Z,2532.00
2018-09-08T08:01:58.347Z,2980.00
2018-09-08T08:02:58.369Z,3352.00
2018-09-08T08:03:58.386Z,3152.00
2018-09-08T08:04:58.406Z,3316.00
2018-09-08T08:05:58.427Z,3360.00
2018-09-08T08:06:58.450Z,3328.00
2018-09-08T08:07:58.473Z,3368.00
2018-09-08T08:08:58.495Z,3448.00
2018-09-08T08:09:58.513Z,3512.00
2018-09-08T08:10:58.531Z,3584.00
2018-09-08T08:11:58.555Z,3524.00
2018-09-08T08:12:58.573Z,3448.00
2018-09-08T08:13:58.596Z,3476.00
2018-09-08T08:14:58.617Z,3456.00
2018-09-08T08:15:58.639Z,3528.00
2018-09-08T08:16:58.661Z,3596.00
2018-09-08T08:17:58.680Z,3628.00
2018-09-08T08:18:58.708Z,3652.00
2018-09-08T08:19:58.724Z,3688.00
2018-09-08T08:20:58.743Z,3860.00
2018-09-08T08:21:58.765Z,3836.00
2018-09-08T08:22:58.788Z,3852.00
2018-09-08T08:23:58.806Z,3680.00
2018-09-08T08:24:58.829Z,3844.00
2018-09-08T08:25:58.851Z,4040.00
2018-09-08T08:26:58.867Z,4032.00
2018-09-08T08:27:58.889Z,4040.00
2018-09-08T08:28:58.912Z,4148.00
2018-09-08T08:29:58.935Z,4160.00
2018-09-08T08:30:58.997Z,4400.00
2018-09-08T08:31:58.977Z,4480.00
2018-09-08T08:32:58.999Z,4312.00
2018-09-08T08:33:59.020Z,3764.00
2018-09-08T08:34:59.042Z,4428.00
2018-09-08T08:35:59.064Z,4536.00
2018-09-08T08:36:59.085Z,4768.00
2018-09-08T08:37:59.106Z,4904.00
2018-09-08T08:38:59.126Z,4948.00
2018-09-08T08:39:59.147Z,5040.00
2018-09-08T08:40:59.170Z,5068.00
2018-09-08T08:41:59.189Z,5032.00
2018-09-08T08:42:59.214Z,5008.00
2018-09-08T08:43:59.236Z,5028.00
2018-09-08T08:44:59.255Z,4996.00
2018-09-08T08:45:59.282Z,4936.00
2018-09-08T08:46:59.304Z,5052.00
2018-09-08T08:47:59.321Z,5000.00
2018-09-08T08:48:59.341Z,4984.00
2018-09-08T08:49:59.365Z,4820.00
2018-09-08T08:50:59.387Z,4928.00
2018-09-08T08:51:59.410Z,5064.00
2018-09-08T08:52:59.430Z,5048.00
2018-09-08T08:53:59.458Z,5024.00
2018-09-08T08:54:59.472Z,5036.00
2018-09-08T08:55:59.495Z,5016.00
2018-09-08T08:56:59.516Z,4956.00
2018-09-08T08:57:59.541Z,4656.00
2018-09-08T08:58:59.565Z,4760.00
2018-09-08T08:59:59.582Z,4800.00
2018-09-08T09:00:59.603Z,4848.00
2018-09-08T09:01:59.626Z,5140.00
2018-09-08T09:02:59.649Z,5296.00
2018-09-08T09:03:59.671Z,5500.00
2018-09-08T09:04:59.694Z,5500.00
2018-09-08T09:05:59.868Z,5604.00
2018-09-08T09:06:59.741Z,6236.00
2018-09-08T09:07:59.761Z,5640.00
2018-09-08T09:08:59.780Z,5800.00
2018-09-08T09:09:59.806Z,6312.00
2018-09-08T09:10:59.825Z,6052.00
2018-09-08T09:11:59.850Z,6172.00
2018-09-08T09:12:59.948Z,6356.00
2018-09-08T09:13:59.892Z,6496.00
2018-09-08T09:14:59.915Z,6392.00
2018-09-08T09:15:59.937Z,6208.00
2018-09-08T09:16:59.959Z,5960.00
2018-09-08T09:17:59.983Z,5836.00
2018-09-08T09:19:00.406Z,5972.00
2018-09-08T09:20:00.028Z,5824.00
2018-09-08T09:21:00.049Z,5956.00
2018-09-08T09:22:00.072Z,6016.00
2018-09-08T09:23:00.097Z,6092.00
2018-09-08T09:24:00.157Z,6220.00
2018-09-08T09:25:00.225Z,5936.00
2018-09-08T09:26:00.162Z,5880.00
2018-09-08T09:27:00.184Z,5460.00
2018-09-08T09:28:00.211Z,5828.00
2018-09-08T09:29:00.333Z,5976.00
2018-09-08T09:30:00.254Z,5532.00
2018-09-08T09:31:00.275Z,5940.00
2018-09-08T09:32:00.350Z,6248.00
2018-09-08T09:33:00.323Z,6476.00
2018-09-08T09:34:00.345Z,6328.00
2018-09-08T09:35:00.372Z,6400.00
2018-09-08T09:36:00.389Z,6568.00
2018-09-08T09:37:00.411Z,6212.00
2018-09-08T09:38:00.440Z,6380.00
2018-09-08T09:39:00.460Z,6496.00
2018-09-08T09:40:00.480Z,6372.00
2018-09-08T09:41:00.503Z,6524.00
2018-09-08T09:42:00.525Z,6520.00
2018-09-08T09:43:00.551Z,6632.00
2018-09-08T09:44:00.597Z,6772.00
2018-09-08T09:45:00.594Z,6832.00
2018-09-08T09:46:00.620Z,7076.00
2018-09-08T09:47:00.641Z,6764.00
2018-09-08T09:48:00.664Z,6892.00
2018-09-08T09:49:00.687Z,6888.00
2018-09-08T09:50:00.712Z,6872.00
2018-09-08T09:51:00.734Z,7196.00
2018-09-08T09:52:00.755Z,7240.00
2018-09-08T09:53:00.822Z,7300.00
2018-09-08T09:54:00.800Z,7432.00
2018-09-08T09:55:00.826Z,7352.00
2018-09-08T09:56:00.849Z,7360.00
2018-09-08T09:57:00.872Z,7336.00
2018-09-08T09:58:00.895Z,7360.00
2018-09-08T09:59:00.916Z,7832.00
2018-09-08T10:00:00.940Z,8096.00
2018-09-08T10:01:00.972Z,8392.00
2018-09-08T10:02:00.990Z,8524.00
2018-09-08T10:03:01.012Z,8316.00
2018-09-08T10:04:01.036Z,8464.00
2018-09-08T10:05:01.059Z,8512.00
2018-09-08T10:06:01.081Z,7596.00
2018-09-08T10:07:01.106Z,7956.00
2018-09-08T10:08:01.131Z,8648.00
2018-09-08T10:09:01.152Z,8688.00
2018-09-08T10:10:01.175Z,8368.00
2018-09-08T10:11:01.196Z,7980.00
2018-09-08T10:12:01.278Z,7560.00
2018-09-08T10:13:01.243Z,7308.00
2018-09-08T10:14:01.268Z,7164.00
2018-09-08T10:15:01.291Z,7180.00
2018-09-08T10:16:01.315Z,7300.00
2018-09-08T10:17:01.339Z,6920.00
2018-09-08T10:18:01.360Z,6760.00
2018-09-08T10:19:01.388Z,6828.00
2018-09-08T10:20:01.409Z,6628.00
2018-09-08T10:21:01.430Z,6292.00
2018-09-08T10:22:01.458Z,6496.00
2018-09-08T10:23:01.532Z,6640.00
2018-09-08T10:24:05.154Z,6768.00
2018-09-08T10:25:01.529Z,7020.00
2018-09-08T10:26:01.551Z,7296.00
2018-09-08T10:27:01.573Z,6876.00
2018-09-08T10:28:01.600Z,7132.00
2018-09-08T10:29:01.621Z,7504.00
2018-09-08T10:30:02.195Z,8024.00
2018-09-08T10:31:01.670Z,8508.00
2018-09-08T10:32:01.692Z,7840.00
2018-09-08T10:33:01.717Z,8088.00
2018-09-08T10:34:01.741Z,7352.00
2018-09-08T10:35:01.765Z,7748.00
2018-09-08T10:36:01.789Z,7744.00
2018-09-08T10:37:01.814Z,7616.00
2018-09-08T10:38:01.835Z,8124.00
2018-09-08T10:39:01.860Z,8368.00
2018-09-08T10:40:01.910Z,8536.00
2018-09-08T10:41:01.914Z,8836.00
2018-09-08T10:42:01.931Z,8968.00
2018-09-08T10:43:01.956Z,8644.00
2018-09-08T10:44:02.129Z,8088.00
2018-09-08T10:45:02.003Z,7820.00
2018-09-08T10:46:02.027Z,7536.00
2018-09-08T10:47:02.051Z,7000.00
2018-09-08T10:48:02.073Z,7056.00
2018-09-08T10:49:02.103Z,7204.00
2018-09-08T10:50:02.121Z,7264.00
2018-09-08T10:51:02.199Z,7092.00
2018-09-08T10:52:02.168Z,6936.00
2018-09-08T10:53:02.192Z,6688.00
2018-09-08T10:54:02.216Z,6060.00
2018-09-08T10:55:02.240Z,5708.00
2018-09-08T10:56:02.266Z,6132.00
2018-09-08T10:57:02.288Z,6704.00
2018-09-08T10:58:02.319Z,7104.00
2018-09-08T10:59:02.339Z,7356.00
2018-09-08T11:00:02.362Z,7396.00
2018-09-08T11:01:02.383Z,7316.00
2018-09-08T11:02:02.739Z,7316.00
2018-09-08T11:03:02.436Z,7220.00
2018-09-08T11:04:02.465Z,7244.00
2018-09-08T11:05:02.482Z,7440.00
2018-09-08T11:06:02.706Z,7644.00
2018-09-08T11:07:02.531Z,7884.00
2018-09-08T11:08:02.553Z,8104.00
2018-09-08T11:09:02.575Z,8172.00
2018-09-08T11:10:02.601Z,8236.00
2018-09-08T11:11:02.623Z,8132.00
2018-09-08T11:12:02.647Z,7980.00
2018-09-08T11:13:02.671Z,7688.00
2018-09-08T11:14:02.697Z,7672.00
2018-09-08T11:15:02.719Z,7752.00
2018-09-08T11:16:02.747Z,7904.00
2018-09-08T11:17:02.776Z,7952.00
2018-09-08T11:18:02.793Z,7612.00
2018-09-08T11:19:02.819Z,7068.00
2018-09-08T11:20:02.844Z,6792.00
2018-09-08T11:21:02.865Z,6720.00
2018-09-08T11:22:02.889Z,6760.00
2018-09-08T11:23:02.914Z,6444.00
2018-09-08T11:24:02.938Z,7012.00
2018-09-08T11:25:02.963Z,6624.00
2018-09-08T11:26:02.983Z,6864.00
2018-09-08T11:27:03.008Z,7552.00
2018-09-08T11:28:03.032Z,8508.00
2018-09-08T11:29:03.058Z,7988.00
2018-09-08T11:30:03.081Z,6744.00
2018-09-08T11:31:03.105Z,5916.00
2018-09-08T11:32:03.131Z,5252.00
2018-09-08T11:33:03.152Z,4784.00
2018-09-08T11:34:03.176Z,4600.00
2018-09-08T11:35:03.204Z,4664.00
2018-09-08T11:36:03.232Z,4760.00
2018-09-08T11:37:03.248Z,5076.00
2018-09-08T11:38:03.328Z,5540.00
2018-09-08T11:39:03.299Z,6140.00
2018-09-08T11:40:03.321Z,6816.00
2018-09-08T11:41:03.347Z,7184.00
2018-09-08T11:42:03.373Z,7676.00
2018-09-08T11:43:03.396Z,8720.00
2018-09-08T11:44:03.721Z,8540.00
2018-09-08T11:45:03.442Z,7252.00
2018-09-08T11:46:03.801Z,6196.00
2018-09-08T11:47:03.490Z,5820.00
2018-09-08T11:48:03.514Z,5876.00
2018-09-08T11:49:03.536Z,5928.00
2018-09-08T11:50:03.563Z,5728.00
2018-09-08T11:51:03.585Z,5352.00
2018-09-08T11:52:03.611Z,5272.00
2018-09-08T11:53:03.799Z,5548.00
2018-09-08T11:54:03.655Z,5768.00
2018-09-08T11:55:03.683Z,5912.00
2018-09-08T11:56:03.704Z,6704.00
2018-09-08T11:57:03.730Z,6200.00
2018-09-08T11:58:03.753Z,6644.00
2018-09-08T11:59:03.777Z,6104.00
2018-09-08T12:00:03.802Z,4304.00
2018-09-08T12:01:03.822Z,4068.00
2018-09-08T12:02:03.891Z,5152.00
2018-09-08T12:03:03.966Z,5396.00
2018-09-08T12:04:03.897Z,6316.00
2018-09-08T12:05:03.918Z,6840.00
2018-09-08T12:06:03.941Z,7568.00
2018-09-08T12:07:03.967Z,7632.00
2018-09-08T12:08:04.091Z,7424.00
2018-09-08T12:09:04.015Z,7328.00
2018-09-08T12:10:04.038Z,7084.00
2018-09-08T12:11:04.064Z,6952.00
2018-09-08T12:12:04.085Z,5716.00
2018-09-08T12:13:04.110Z,5704.00
2018-09-08T12:14:04.190Z,5568.00
2018-09-08T12:15:04.157Z,5456.00
2018-09-08T12:16:04.180Z,6452.00
2018-09-08T12:17:04.204Z,6696.00
2018-09-08T12:18:04.232Z,6044.00
2018-09-08T12:19:04.285Z,5680.00
2018-09-08T12:20:04.276Z,5732.00
2018-09-08T12:21:04.299Z,5912.00
2018-09-08T12:22:04.351Z,5684.00
2018-09-08T12:23:04.350Z,5204.00
2018-09-08T12:24:04.376Z,4956.00
2018-09-08T12:25:04.397Z,4612.00
2018-09-08T12:26:04.423Z,4384.00
2018-09-08T12:27:04.446Z,4492.00
2018-09-08T12:28:04.471Z,4680.00
2018-09-08T12:29:04.493Z,4952.00
2018-09-08T12:30:04.515Z,5492.00
2018-09-08T12:31:04.616Z,6384.00
2018-09-08T12:32:04.563Z,7092.00
2018-09-08T12:33:04.590Z,7272.00
2018-09-08T12:34:04.612Z,7236.00